Time;durP1;ratioP1;P1;durP2;ratioP2;P2;SDS_P1;SDS_P2;PMS_P1;PMS_P2;Temp;Humidity;BMP_temperature;BMP_pressure;BME280_temperature;BME280_humidity;BME280_pressure;Samples;Min_cycle;Max_cycle;Signal;HPM_P1;HPM_P2
2022/10/19 00:01:04;;;;;;;;;;;;;;;21.57;65.81;100454.78;7307776;19;130959;-37
2022/10/19 00:03:30;;;;;;;;;;;;;;;21.61;65.66;100454.47;7309370;19;130077;-39
2022/10/19 00:05:55;;;;;;;;;;;;;;;21.61;65.64;100459.69;7309816;19;131291;-39
2022/10/19 00:08:20;;;;;;;;;;;;;;;21.59;65.79;100453.75;7307228;19;129692;-38
2022/10/19 00:10:46;;;;;;;;;;;;;;;21.60;65.13;100458.00;7307417;19;129399;-40
2022/10/19 00:13:11;;;;;;;;;;;;;;;21.60;65.58;100450.16;7308473;19;129776;-40
2022/10/19 00:15:38;;;;;;;;;;;;;;;21.53;65.23;100429.84;7307704;19;130714;-38
2022/10/19 00:18:03;;;;;;;;;;;;;;;21.55;65.41;100454.91;7314694;19;129190;-37
2022/10/19 00:20:28;;;;;;;;;;;;;;;21.57;65.54;100465.25;7315695;19;129295;-38
2022/10/19 00:22:53;;;;;;;;;;;;;;;21.60;65.96;100465.88;7313533;19;130271;-38
2022/10/19 00:25:19;;;;;;;;;;;;;;;21.59;65.78;100455.53;7316915;19;129201;-38
2022/10/19 00:27:44;;;;;;;;;;;;;;;21.58;66.02;100462.56;7313571;19;130230;-37
2022/10/19 00:30:09;;;;;;;;;;;;;;;21.57;65.45;100463.50;7315564;19;130332;-39
2022/10/19 00:32:34;;;;;;;;;;;;;;;21.58;66.03;100469.56;7312144;19;130748;-39
2022/10/19 00:35:00;;;;;;;;;;;;;;;21.52;65.19;100451.69;7315282;19;129554;-39
2022/10/19 00:37:25;;;;;;;;;;;;;;;21.45;65.90;100456.56;7314624;19;130577;-37
2022/10/19 00:39:51;;;;;;;;;;;;;;;21.56;65.87;100463.59;7314327;19;130728;-38
2022/10/19 00:42:16;;;;;;;;;;;;;;;21.59;65.78;100468.59;7314599;19;129260;-39
2022/10/19 00:44:41;;;;;;;;;;;;;;;21.57;65.95;100468.72;7313401;19;129276;-38
2022/10/19 00:47:07;;;;;;;;;;;;;;;21.57;66.00;100466.09;7315525;19;130155;-39
2022/10/19 00:49:34;;;;;;;;;;;;;;;21.52;66.02;100457.78;7313730;19;130453;-37
2022/10/19 00:52:05;;;;;;;;;;;;;;;21.61;65.76;100467.56;7312812;19;129074;-39
2022/10/19 00:54:34;;;;;;;;;;;;;;;21.60;65.97;100470.28;7315323;19;129135;-39
2022/10/19 00:57:00;;;;;;;;;;;;;;;21.57;65.61;100463.50;7314414;19;130176;-38
2022/10/19 00:59:27;;;;;;;;;;;;;;;21.59;65.88;100455.53;7314237;19;130785;-41
2022/10/19 01:01:53;;;;;;;;;;;;;;;21.57;65.89;100455.63;7314885;19;129378;-39
2022/10/19 01:04:22;;;;;;;;;;;;;;;21.57;65.65;100458.25;7307118;19;129619;-39
2022/10/19 01:06:47;;;;;;;;;;;;;;;21.59;65.42;100456.38;7311372;19;130157;-40
2022/10/19 01:09:16;;;;;;;;;;;;;;;21.57;65.81;100455.63;7310672;19;147295;-39
2022/10/19 01:11:56;;;;;;;;;;;;;;;21.52;65.91;100449.09;7311457;19;130288;-38
2022/10/19 01:14:27;;;;;;;;;;;;;;;21.59;65.26;100452.91;7313818;19;129486;-39
2022/10/19 01:17:02;;;;;;;;;;;;;;;21.58;65.99;100457.31;7313484;19;130278;-39
2022/10/19 01:19:40;;;;;;;;;;;;;;;21.58;65.37;100454.72;7315493;19;130312;-41
2022/10/19 01:22:16;;;;;;;;;;;;;;;21.60;65.44;100450.16;7313940;19;129103;-40
2022/10/19 01:24:44;;;;;;;;;;;;;;;21.62;64.99;100445.66;7314010;19;129769;-40
2022/10/19 01:27:25;;;;;;;;;;;;;;;21.60;65.75;100450.16;7311871;19;130554;-41
2022/10/19 01:30:10;;;;;;;;;;;;;;;21.47;65.79;100428.53;7312696;19;129787;-37
2022/10/19 01:32:45;;;;;;;;;;;;;;;21.61;65.26;100451.84;7313645;19;129790;-41
2022/10/19 01:35:13;;;;;;;;;;;;;;;21.59;66.00;100442.44;7314069;19;129032;-38
2022/10/19 01:37:51;;;;;;;;;;;;;;;21.58;65.17;100436.41;7311485;19;130132;-38
2022/10/19 01:40:29;;;;;;;;;;;;;;;21.59;65.21;100447.66;7314998;19;130325;-38
2022/10/19 01:43:18;;;;;;;;;;;;;;;21.60;65.59;100449.34;7312268;19;129550;-37
2022/10/19 01:45:49;;;;;;;;;;;;;;;21.60;65.75;100439.69;7311770;19;129457;-38
2022/10/19 01:48:16;;;;;;;;;;;;;;;21.58;66.08;100444.25;7312167;19;130101;-40
2022/10/19 01:50:42;;;;;;;;;;;;;;;21.58;65.74;100448.63;7313537;19;130489;-40
2022/10/19 01:53:09;;;;;;;;;;;;;;;21.61;65.21;100451.00;7314651;19;129505;-37
2022/10/19 01:55:37;;;;;;;;;;;;;;;21.62;65.44;100452.66;7312765;19;129570;-39
2022/10/19 01:58:05;;;;;;;;;;;;;;;21.51;65.42;100440.44;7311435;19;130188;-39
2022/10/19 02:00:33;;;;;;;;;;;;;;;21.56;66.01;100451.38;7313131;19;130845;-38
2022/10/19 02:02:59;;;;;;;;;;;;;;;21.58;65.38;100451.25;7312335;19;129633;-39
2022/10/19 02:05:28;;;;;;;;;;;;;;;21.56;65.67;100448.75;7312533;19;130329;-40
2022/10/19 02:07:56;;;;;;;;;;;;;;;21.58;65.51;100441.63;7310297;19;129343;-39
2022/10/19 02:10:22;;;;;;;;;;;;;;;21.59;65.88;100443.28;7313943;19;130974;-39
2022/10/19 02:12:48;;;;;;;;;;;;;;;21.58;65.78;100439.00;7309718;19;130182;-40
2022/10/19 02:15:16;;;;;;;;;;;;;;;21.60;65.29;100444.94;7313856;19;129285;-38
2022/10/19 02:17:45;;;;;;;;;;;;;;;21.58;65.63;100436.41;7311940;19;129452;-39
2022/10/19 02:20:10;;;;;;;;;;;;;;;21.61;66.00;100433.53;7311398;19;129383;-38
2022/10/19 02:22:36;;;;;;;;;;;;;;;21.52;65.36;100426.38;7311655;19;129237;-38
2022/10/19 02:25:02;;;;;;;;;;;;;;;21.61;65.76;100445.78;7311707;19;129040;-40
2022/10/19 02:27:27;;;;;;;;;;;;;;;21.59;65.19;100435.44;7311825;19;131011;-39
2022/10/19 02:29:52;;;;;;;;;;;;;;;21.63;65.58;100434.25;7312229;19;130582;-40
2022/10/19 02:32:18;;;;;;;;;;;;;;;21.60;65.82;100433.66;7308554;19;129278;-37
2022/10/19 02:34:43;;;;;;;;;;;;;;;21.58;65.48;100436.41;7311537;19;129647;-38
2022/10/19 02:37:08;;;;;;;;;;;;;;;21.58;65.37;100433.78;7310810;19;130203;-39
2022/10/19 02:39:34;;;;;;;;;;;;;;;21.57;65.40;100434.72;7311497;19;131051;-40
2022/10/19 02:41:59;;;;;;;;;;;;;;;21.59;65.29;100437.19;7312142;19;130042;-39
2022/10/19 02:44:35;;;;;;;;;;;;;;;21.59;65.58;100438.03;7312506;19;129831;-40
2022/10/19 02:47:05;;;;;;;;;;;;;;;21.56;65.47;100448.75;7307207;19;129652;-38
2022/10/19 02:49:33;;;;;;;;;;;;;;;21.60;66.05;100439.69;7312736;19;130416;-40
2022/10/19 02:52:02;;;;;;;;;;;;;;;21.48;65.41;100424.97;7308546;19;129847;-40
2022/10/19 02:54:28;;;;;;;;;;;;;;;21.61;65.55;100446.63;7308440;19;129318;-38
2022/10/19 02:56:53;;;;;;;;;;;;;;;21.61;65.18;100441.38;7309885;19;130225;-39
2022/10/19 02:59:19;;;;;;;;;;;;;;;21.59;65.92;100437.19;7311233;19;130314;-37
2022/10/19 03:01:44;;;;;;;;;;;;;;;21.61;65.30;100441.38;7312108;19;128929;-40
2022/10/19 03:04:09;;;;;;;;;;;;;;;21.57;66.17;100432.09;7310456;19;128993;-39
2022/10/19 03:06:34;;;;;;;;;;;;;;;21.56;65.87;100440.91;7310576;19;129214;-40
2022/10/19 03:08:59;;;;;;;;;;;;;;;21.55;65.78;100436.59;7310445;19;129747;-39
2022/10/19 03:11:25;;;;;;;;;;;;;;;21.56;65.48;100434.81;7309138;19;129174;-37
2022/10/19 03:13:50;;;;;;;;;;;;;;;21.59;65.43;100432.81;7309156;19;129581;-38
2022/10/19 03:16:15;;;;;;;;;;;;;;;21.60;65.43;100437.09;7311413;19;130221;-38
2022/10/19 03:18:40;;;;;;;;;;;;;;;21.57;65.69;100429.47;7310231;19;129359;-40
2022/10/19 03:21:07;;;;;;;;;;;;;;;21.56;65.82;100437.44;7310502;19;129015;-38
2022/10/19 03:23:33;;;;;;;;;;;;;;;21.58;66.19;100436.41;7308806;19;128863;-39
2022/10/19 03:25:58;;;;;;;;;;;;;;;21.56;65.87;100435.66;7309835;19;130296;-39
2022/10/19 03:28:23;;;;;;;;;;;;;;;21.58;65.80;100420.69;7308565;19;129672;-40
2022/10/19 03:30:48;;;;;;;;;;;;;;;21.47;65.17;100418.06;7309378;19;129330;-39
2022/10/19 03:33:14;;;;;;;;;;;;;;;21.57;65.96;100429.47;7308810;19;129394;-38
2022/10/19 03:35:39;;;;;;;;;;;;;;;21.59;65.40;100432.81;7310539;19;129053;-39
2022/10/19 03:38:04;;;;;;;;;;;;;;;21.56;65.65;100433.06;7308234;19;131741;-39
2022/10/19 03:40:29;;;;;;;;;;;;;;;21.55;66.10;100436.59;7311927;19;129317;-38
2022/10/19 03:42:55;;;;;;;;;;;;;;;21.55;66.00;100439.22;7306782;19;129124;-40
2022/10/19 03:45:20;;;;;;;;;;;;;;;21.61;65.43;100446.63;7310571;19;129933;-37
2022/10/19 03:47:49;;;;;;;;;;;;;;;21.55;65.83;100441.84;7307100;19;131088;-38
2022/10/19 03:50:15;;;;;;;;;;;;;;;21.57;66.04;100446.94;7310741;19;129185;-39
2022/10/19 03:52:41;;;;;;;;;;;;;;;21.57;65.87;100445.19;7314126;19;129531;-39
2022/10/19 03:55:06;;;;;;;;;;;;;;;21.56;65.37;100446.13;7316733;19;129652;-36
2022/10/19 03:57:32;;;;;;;;;;;;;;;21.58;65.16;100451.25;7315927;19;130472;-40
2022/10/19 03:59:57;;;;;;;;;;;;;;;21.58;66.00;100446.84;7316795;19;130895;-39
2022/10/19 04:02:22;;;;;;;;;;;;;;;21.60;65.58;100451.97;7315054;19;128857;-38
2022/10/19 04:04:47;;;;;;;;;;;;;;;21.57;65.45;100447.78;7314585;19;130176;-40
2022/10/19 04:07:12;;;;;;;;;;;;;;;21.59;65.84;100451.13;7315173;19;130451;-35
2022/10/19 04:09:38;;;;;;;;;;;;;;;21.61;65.25;100445.78;7316300;19;129273;-40
2022/10/19 04:12:03;;;;;;;;;;;;;;;21.60;65.74;100449.34;7313794;19;129352;-38
2022/10/19 04:14:28;;;;;;;;;;;;;;;21.62;65.44;100450.88;7314975;19;130634;-40
2022/10/19 04:16:53;;;;;;;;;;;;;;;21.58;65.43;100451.25;7316108;19;130661;-38
2022/10/19 04:19:19;;;;;;;;;;;;;;;21.57;65.48;100455.63;7315962;19;128883;-39
2022/10/19 04:21:46;;;;;;;;;;;;;;;21.56;65.89;100459.22;7315675;19;129282;-39
2022/10/19 04:24:13;;;;;;;;;;;;;;;21.49;66.34;100452.78;7314622;19;131230;-39
2022/10/19 04:26:43;;;;;;;;;;;;;;;21.50;65.78;100451.81;7313969;19;129874;-39
2022/10/19 04:29:08;;;;;;;;;;;;;;;21.57;65.46;100460.88;7317112;19;130329;-39
2022/10/19 04:31:34;;;;;;;;;;;;;;;21.60;65.34;100455.41;7312847;19;129341;-39
2022/10/19 04:33:59;;;;;;;;;;;;;;;21.59;65.54;100463.38;7314389;19;130393;-38
2022/10/19 04:36:24;;;;;;;;;;;;;;;21.57;66.04;100460.03;7314271;19;130367;-38
2022/10/19 04:38:49;;;;;;;;;;;;;;;21.54;66.00;100471.59;7315832;19;129096;-38
2022/10/19 04:41:16;;;;;;;;;;;;;;;21.58;65.95;100467.78;7315751;19;129021;-39
2022/10/19 04:43:44;;;;;;;;;;;;;;;21.58;65.63;100472.19;7312167;19;129480;-40
2022/10/19 04:46:18;;;;;;;;;;;;;;;21.54;66.13;100470.75;7315670;19;130355;-40
2022/10/19 04:48:44;;;;;;;;;;;;;;;21.54;65.59;100479.44;7314104;19;128972;-39
2022/10/19 04:51:10;;;;;;;;;;;;;;;21.54;66.02;100482.06;7315034;19;129287;-39
2022/10/19 04:53:36;;;;;;;;;;;;;;;21.56;65.38;100484.53;7312427;19;129563;-39
2022/10/19 04:56:06;;;;;;;;;;;;;;;21.54;66.02;100474.19;7315422;19;130949;-39
2022/10/19 04:58:31;;;;;;;;;;;;;;;21.54;66.03;100471.59;7316026;19;130926;-37
2022/10/19 05:00:56;;;;;;;;;;;;;;;21.56;66.02;100474.91;7315483;19;129474;-39
2022/10/19 05:03:21;;;;;;;;;;;;;;;21.50;65.51;100470.13;7311836;19;129176;-40
2022/10/19 05:05:47;;;;;;;;;;;;;;;21.54;65.98;100481.22;7312083;19;130633;-41
2022/10/19 05:08:12;;;;;;;;;;;;;;;21.57;65.98;100484.44;7306745;19;129951;-36
2022/10/19 05:10:37;;;;;;;;;;;;;;;21.54;66.01;100482.06;7314648;19;129230;-37
2022/10/19 05:13:02;;;;;;;;;;;;;;;21.57;65.30;100480.97;7314103;19;130135;-38
2022/10/19 05:15:28;;;;;;;;;;;;;;;21.56;65.82;100474.91;7314589;19;129693;-39
2022/10/19 05:17:54;;;;;;;;;;;;;;;21.50;65.47;100466.72;7310782;19;130438;-41
2022/10/19 05:20:19;;;;;;;;;;;;;;;21.61;65.06;100474.56;7311712;19;129343;-38
2022/10/19 05:22:44;;;;;;;;;;;;;;;21.59;65.25;100479.06;7312658;19;130773;-37
2022/10/19 05:25:09;;;;;;;;;;;;;;;21.63;65.12;100470.88;7312484;19;131111;-39
2022/10/19 05:27:35;;;;;;;;;;;;;;;21.58;65.91;100470.41;7309296;19;129488;-39
2022/10/19 05:30:00;;;;;;;;;;;;;;;21.50;65.19;100461.47;7307164;19;130507;-38
2022/10/19 05:32:26;;;;;;;;;;;;;;;21.54;65.39;100476.81;7308432;19;131268;-38
2022/10/19 05:34:51;;;;;;;;;;;;;;;21.55;66.09;100478.47;7313045;19;130050;-37
2022/10/19 05:37:16;;;;;;;;;;;;;;;21.59;65.66;100479.91;7313020;19;129043;-39
2022/10/19 05:39:42;;;;;;;;;;;;;;;21.57;65.73;100486.19;7312184;19;129394;-39
2022/10/19 05:42:07;;;;;;;;;;;;;;;21.58;66.01;100485.28;7313855;19;129511;-38
2022/10/19 05:44:32;;;;;;;;;;;;;;;21.55;65.74;100477.66;7313118;19;130352;-40
2022/10/19 05:46:57;;;;;;;;;;;;;;;21.57;65.62;100484.44;7306867;19;129228;-38
2022/10/19 05:49:23;;;;;;;;;;;;;;;21.55;65.42;100483.69;7313349;19;129202;-39
2022/10/19 05:51:48;;;;;;;;;;;;;;;21.54;66.15;100476.81;7311048;19;129366;-40
2022/10/19 05:54:13;;;;;;;;;;;;;;;21.53;65.95;100484.78;7313652;19;131070;-40
2022/10/19 05:56:39;;;;;;;;;;;;;;;21.55;65.37;100483.69;7311845;19;131092;-41
2022/10/19 05:59:05;;;;;;;;;;;;;;;21.54;65.42;100497.75;7313020;19;129514;-39
2022/10/19 06:01:31;;;;;;;;;;;;;;;21.55;66.07;100491.56;7312732;19;130503;-38
2022/10/19 06:03:57;;;;;;;;;;;;;;;21.53;65.63;100495.25;7314289;19;131834;-39
2022/10/19 06:06:23;;;;;;;;;;;;;;;21.54;66.08;100491.66;7311564;19;130261;-40
2022/10/19 06:08:49;;;;;;;;;;;;;;;21.58;65.67;100493.97;7314425;19;130196;-39
2022/10/19 06:11:16;;;;;;;;;;;;;;;21.59;65.68;100490.38;7310983;19;129765;-39
2022/10/19 06:13:42;;;;;;;;;;;;;;;21.57;66.01;100492.28;7310800;19;129286;-38
2022/10/19 06:16:08;;;;;;;;;;;;;;;21.45;65.85;100472.28;7311891;19;128795;-40
2022/10/19 06:18:34;;;;;;;;;;;;;;;21.46;65.92;100475.72;7310165;19;129584;-39
2022/10/19 06:21:03;;;;;;;;;;;;;;;21.54;65.57;100496.91;7313846;19;130447;-40
2022/10/19 06:23:29;;;;;;;;;;;;;;;21.53;65.79;100496.09;7310983;19;131664;-38
2022/10/19 06:25:54;;;;;;;;;;;;;;;21.45;65.90;100474.09;7311846;19;128995;-39
2022/10/19 06:28:19;;;;;;;;;;;;;;;21.48;65.82;100476.47;7308644;19;129135;-41
2022/10/19 06:30:45;;;;;;;;;;;;;;;21.55;65.33;100498.59;7312817;19;131283;-37
2022/10/19 06:33:10;;;;;;;;;;;;;;;21.43;66.23;100489.06;7310901;19;130499;-40
2022/10/19 06:35:35;;;;;;;;;;;;;;;21.52;65.78;100509.25;7311703;19;129279;-38
2022/10/19 06:38:00;;;;;;;;;;;;;;;21.56;65.26;100516.78;7309254;19;129187;-38
2022/10/19 06:40:25;;;;;;;;;;;;;;;21.56;65.34;100510.72;7310118;19;129723;-39
2022/10/19 06:42:51;;;;;;;;;;;;;;;21.56;65.65;100515.94;7311156;19;129774;-39
2022/10/19 06:45:16;;;;;;;;;;;;;;;21.54;65.51;100518.69;7310833;19;129139;-38
2022/10/19 06:47:41;;;;;;;;;;;;;;;21.55;65.97;100524.75;7310179;19;129404;-40
2022/10/19 06:50:07;;;;;;;;;;;;;;;21.57;65.89;100538.53;7311691;19;130037;-39
2022/10/19 06:52:33;;;;;;;;;;;;;;;21.57;65.72;100522.84;7307680;19;129282;-36
2022/10/19 06:54:58;;;;;;;;;;;;;;;21.45;65.64;100506.28;7311297;19;129417;-40
2022/10/19 06:57:23;;;;;;;;;;;;;;;21.56;65.78;100522.03;7309777;19;129628;-37
2022/10/19 06:59:48;;;;;;;;;;;;;;;21.55;65.58;100522.94;7310282;19;129152;-41
2022/10/19 07:02:14;;;;;;;;;;;;;;;21.56;65.52;100527.25;7310944;19;131280;-40
2022/10/19 07:04:39;;;;;;;;;;;;;;;21.49;65.78;100520.81;7310514;19;130348;-41
2022/10/19 07:07:04;;;;;;;;;;;;;;;21.54;65.64;100533.53;7309898;19;129080;-39
2022/10/19 07:09:29;;;;;;;;;;;;;;;21.54;65.38;100537.00;7310033;19;129438;-38
2022/10/19 07:11:55;;;;;;;;;;;;;;;21.54;65.99;100534.38;7308393;19;129215;-39
2022/10/19 07:14:20;;;;;;;;;;;;;;;21.56;65.88;100536.88;7310081;19;128847;-39
2022/10/19 07:16:45;;;;;;;;;;;;;;;21.53;65.59;100548.44;7309155;19;130592;-40
2022/10/19 07:19:12;;;;;;;;;;;;;;;21.52;65.87;100541.50;7308664;19;130825;-41
2022/10/19 07:21:40;;;;;;;;;;;;;;;21.56;65.49;100547.34;7308184;19;130697;-39
2022/10/19 07:24:06;;;;;;;;;;;;;;;21.54;65.80;100544.84;7311295;19;130027;-38
2022/10/19 07:26:32;;;;;;;;;;;;;;;21.59;65.27;100547.94;7315002;19;130025;-39
2022/10/19 07:28:57;;;;;;;;;;;;;;;21.60;65.83;100544.38;7317376;19;130145;-39
2022/10/19 07:31:23;;;;;;;;;;;;;;;21.54;66.13;100546.63;7315229;19;131138;-39
2022/10/19 07:33:52;;;;;;;;;;;;;;;21.54;65.40;100557.09;7317707;19;129330;-40
2022/10/19 07:36:18;;;;;;;;;;;;;;;21.55;65.33;100550.91;7317304;19;130136;-40
2022/10/19 07:38:43;;;;;;;;;;;;;;;21.58;65.63;100551.53;7316643;19;129670;-37
2022/10/19 07:41:11;;;;;;;;;;;;;;;21.56;65.74;100563.03;7317482;19;129768;-37
2022/10/19 07:43:37;;;;;;;;;;;;;;;21.55;66.08;100562.19;7317248;19;129082;-39
2022/10/19 07:46:03;;;;;;;;;;;;;;;21.54;65.93;100564.94;7318011;19;129375;-37
2022/10/19 07:48:29;;;;;;;;;;;;;;;21.53;66.13;100569.34;7317438;19;130384;-40
2022/10/19 07:50:54;;;;;;;;;;;;;;;21.52;66.11;100556.34;7317711;19;130233;-40
2022/10/19 07:53:20;;;;;;;;;;;;;;;21.52;65.85;100562.44;7316047;19;129392;-39
2022/10/19 07:55:45;;;;;;;;;;;;;;;21.53;65.07;100563.28;7317566;19;128838;-38
2022/10/19 07:58:10;;;;;;;;;;;;;;;21.53;65.56;100558.88;7315366;19;129188;-39
2022/10/19 08:00:35;;;;;;;;;;;;;;;21.55;65.93;100562.19;7316634;19;129727;-39
2022/10/19 08:03:00;;;;;;;;;;;;;;;21.52;66.02;100562.44;7316589;19;129719;-39
2022/10/19 08:05:26;;;;;;;;;;;;;;;21.52;65.88;100562.44;7317244;19;130036;-39
2022/10/19 08:07:51;;;;;;;;;;;;;;;21.56;65.97;100563.88;7313149;19;130242;-39
2022/10/19 08:10:16;;;;;;;;;;;;;;;21.53;65.92;100569.34;7316529;19;129723;-39
2022/10/19 08:12:41;;;;;;;;;;;;;;;21.53;65.50;100576.38;7315594;19;128888;-39
2022/10/19 08:15:07;;;;;;;;;;;;;;;21.57;65.63;100573.38;7316812;19;130764;-40
2022/10/19 08:17:35;;;;;;;;;;;;;;;21.58;65.69;100571.63;7312926;19;129673;-39
2022/10/19 08:20:01;;;;;;;;;;;;;;;21.53;66.21;100579.81;7315208;19;129997;-40
2022/10/19 08:22:26;;;;;;;;;;;;;;;21.57;65.60;100590.88;7317043;19;129442;-40
2022/10/19 08:24:51;;;;;;;;;;;;;;;21.48;65.63;100568.88;7316941;19;129293;-39
2022/10/19 08:27:17;;;;;;;;;;;;;;;21.53;65.95;100578.97;7315005;19;129895;-39
2022/10/19 08:29:42;;;;;;;;;;;;;;;21.52;65.65;100588.59;7316613;19;130916;-40
2022/10/19 08:32:07;;;;;;;;;;;;;;;21.47;65.56;100585.50;7314060;19;129796;-38
2022/10/19 08:34:33;;;;;;;;;;;;;;;21.53;65.61;100585.06;7316905;19;131622;-38
2022/10/19 08:37:00;;;;;;;;;;;;;;;21.54;65.42;100583.25;7312172;19;130220;-38
2022/10/19 08:39:25;;;;;;;;;;;;;;;21.54;65.47;100581.47;7313570;19;130487;-37
2022/10/19 08:42:02;;;;;;;;;;;;;;;21.50;66.08;100584.44;7314993;19;129272;-38
2022/10/19 08:44:33;;;;;;;;;;;;;;;21.53;65.97;100584.22;7314604;19;129925;-41
2022/10/19 08:47:17;;;;;;;;;;;;;;;21.52;65.99;100583.38;7315023;19;130202;-40
2022/10/19 08:49:43;;;;;;;;;;;;;;;21.54;65.95;100591.94;7313083;19;129784;-39
2022/10/19 08:52:12;;;;;;;;;;;;;;;21.52;65.88;100580.75;7314328;19;129138;-39
2022/10/19 08:54:52;;;;;;;;;;;;;;;21.42;66.05;100565.88;7315024;19;129995;-39
2022/10/19 08:57:26;;;;;;;;;;;;;;;21.53;65.60;100578.97;7312117;19;131001;-39
2022/10/19 09:00:00;;;;;;;;;;;;;;;21.41;66.09;100559.81;7315648;19;130172;-40
2022/10/19 09:02:34;;;;;;;;;;;;;;;21.52;65.98;100577.28;7315351;19;128968;-40
2022/10/19 09:05:04;;;;;;;;;;;;;;;21.52;66.18;100577.28;7314929;19;129573;-38
2022/10/19 09:07:36;;;;;;;;;;;;;;;21.49;66.16;100578.38;7313218;19;131908;-38
2022/10/19 09:10:03;;;;;;;;;;;;;;;21.43;65.60;100563.16;7314636;19;130714;-40
2022/10/19 09:12:36;;;;;;;;;;;;;;;21.43;65.70;100563.16;7312611;19;129046;-39
2022/10/19 09:15:06;;;;;;;;;;;;;;;21.39;65.56;100559.06;7315143;19;131137;-39
2022/10/19 09:17:32;;;;;;;;;;;;;;;21.53;65.88;100582.44;7309336;19;129646;-38
2022/10/19 09:20:00;;;;;;;;;;;;;;;21.55;65.74;100577.09;7315904;19;129155;-39
2022/10/19 09:22:31;;;;;;;;;;;;;;;21.56;65.88;100584.81;7314170;19;130247;-39
2022/10/19 09:25:02;;;;;;;;;;;;;;;21.54;65.02;100576.25;7315379;19;129559;-37
2022/10/19 09:27:35;;;;;;;;;;;;;;;21.57;65.95;100573.38;7311394;19;129172;-37
2022/10/19 09:30:02;;;;;;;;;;;;;;;21.52;65.96;100572.91;7315813;19;130573;-39
2022/10/19 09:32:32;;;;;;;;;;;;;;;21.53;65.89;100566.75;7312789;19;129264;-40
2022/10/19 09:35:01;;;;;;;;;;;;;;;21.51;65.46;100571.25;7313543;19;130159;-38
2022/10/19 09:37:27;;;;;;;;;;;;;;;21.41;65.59;100556.34;7311765;19;130567;-39
2022/10/19 09:39:53;;;;;;;;;;;;;;;21.50;65.94;100569.56;7313425;19;130322;-39
2022/10/19 09:42:28;;;;;;;;;;;;;;;21.49;65.57;100578.38;7313489;19;129335;-39
2022/10/19 09:44:53;;;;;;;;;;;;;;;21.43;66.26;100562.31;7313591;19;129141;-38
2022/10/19 09:47:35;;;;;;;;;;;;;;;21.51;65.36;100580.88;7309886;19;130415;-39
2022/10/19 09:50:19;;;;;;;;;;;;;;;21.43;65.94;100572.78;7311995;19;129150;-38
2022/10/19 09:52:50;;;;;;;;;;;;;;;21.51;65.39;100576.47;7312863;19;129180;-39
2022/10/19 09:55:18;;;;;;;;;;;;;;;21.50;66.30;100585.25;7314356;19;130187;-40
2022/10/19 09:57:44;;;;;;;;;;;;;;;21.48;65.75;100589.78;7311907;19;130272;-39
2022/10/19 10:00:20;;;;;;;;;;;;;;;21.52;65.65;100583.38;7314099;19;130352;-40
2022/10/19 10:02:50;;;;;;;;;;;;;;;21.52;66.02;100583.38;7313508;19;129305;-37
2022/10/19 10:05:15;;;;;;;;;;;;;;;21.51;65.64;100594.78;7314385;19;129088;-38
2022/10/19 10:07:40;;;;;;;;;;;;;;;21.52;66.18;100590.38;7310738;19;130150;-40
2022/10/19 10:10:19;;;;;;;;;;;;;;;21.48;65.91;100584.56;7314579;19;130385;-40
2022/10/19 10:12:45;;;;;;;;;;;;;;;21.46;66.03;100589.06;7309892;19;131310;-37
2022/10/19 10:15:15;;;;;;;;;;;;;;;21.50;65.90;100589.69;7313872;19;128873;-38
2022/10/19 10:17:43;;;;;;;;;;;;;;;21.39;66.12;100566.94;7310074;19;130234;-39
2022/10/19 10:20:29;;;;;;;;;;;;;;;21.52;65.58;100588.59;7313687;19;130286;-38
2022/10/19 10:23:02;;;;;;;;;;;;;;;21.52;65.93;100598.22;7312424;19;129841;-39
2022/10/19 10:25:29;;;;;;;;;;;;;;;21.50;65.85;100594.91;7311883;19;129612;-39
2022/10/19 10:27:56;;;;;;;;;;;;;;;21.51;65.70;100600.03;7311592;19;130961;-38
2022/10/19 10:30:21;;;;;;;;;;;;;;;21.50;65.77;100595.72;7312332;19;132483;-39
2022/10/19 10:32:48;;;;;;;;;;;;;;;21.49;65.72;100590.59;7310112;19;129382;-40
2022/10/19 10:35:16;;;;;;;;;;;;;;;21.52;65.60;100588.59;7312909;19;129263;-39
2022/10/19 10:37:43;;;;;;;;;;;;;;;21.47;65.58;100590.72;7308214;19;129327;-38
2022/10/19 10:40:19;;;;;;;;;;;;;;;21.51;66.06;100591.34;7312522;19;130969;-37
2022/10/19 10:42:45;;;;;;;;;;;;;;;21.52;65.30;100591.22;7311349;19;129565;-39
2022/10/19 10:45:24;;;;;;;;;;;;;;;21.49;65.40;100588.84;7313759;19;129296;-39
2022/10/19 10:47:50;;;;;;;;;;;;;;;21.50;65.70;100581.84;7311048;19;129821;-39
2022/10/19 10:50:20;;;;;;;;;;;;;;;21.45;66.12;100590.00;7312572;19;129893;-39
2022/10/19 10:52:59;;;;;;;;;;;;;;;21.49;65.61;100577.53;7308929;19;129707;-39
2022/10/19 10:55:25;;;;;;;;;;;;;;;21.47;66.04;100585.50;7312186;19;129476;-40
2022/10/19 10:57:52;;;;;;;;;;;;;;;21.49;65.61;100586.22;7307590;19;130201;-39
2022/10/19 11:00:18;;;;;;;;;;;;;;;21.40;65.93;100562.53;7311735;19;130888;-39
2022/10/19 11:02:55;;;;;;;;;;;;;;;21.46;66.04;100586.47;7309887;19;130240;-38
2022/10/19 11:05:31;;;;;;;;;;;;;;;21.47;66.25;100584.69;7312117;19;128949;-40
2022/10/19 11:08:03;;;;;;;;;;;;;;;21.49;65.73;100588.84;7308564;19;130400;-39
2022/10/19 11:10:30;;;;;;;;;;;;;;;21.48;65.98;100587.19;7310987;19;131136;-40
2022/10/19 11:13:09;;;;;;;;;;;;;;;21.40;65.97;100584.28;7308627;19;129931;-41
2022/10/19 11:15:39;;;;;;;;;;;;;;;21.49;65.78;100599.31;7310634;19;128998;-38
2022/10/19 11:18:15;;;;;;;;;;;;;;;21.51;65.45;100597.41;7309888;19;130878;-39
2022/10/19 11:21:00;;;;;;;;;;;;;;;21.51;65.54;100601.81;7307512;19;130993;-38
2022/10/19 11:23:34;;;;;;;;;;;;;;;21.39;65.92;100582.63;7310931;19;129146;-39
2022/10/19 11:26:09;;;;;;;;;;;;;;;21.46;66.03;100604.78;7310645;19;130667;-39
2022/10/19 11:28:34;;;;;;;;;;;;;;;21.43;65.82;100588.47;7312666;19;130445;-40
2022/10/19 11:30:59;;;;;;;;;;;;;;;21.46;66.08;100596.06;7310288;19;130452;-40
2022/10/19 11:33:46;;;;;;;;;;;;;;;21.48;65.90;100592.41;7308401;19;129131;-38
2022/10/19 11:36:17;;;;;;;;;;;;;;;21.46;66.03;100591.69;7309908;19;129012;-37
2022/10/19 11:38:54;;;;;;;;;;;;;;;21.45;66.34;100582.16;7311322;19;130305;-38
2022/10/19 11:41:25;;;;;;;;;;;;;;;21.45;65.62;100592.63;7310125;19;131976;-40
2022/10/19 11:44:09;;;;;;;;;;;;;;;21.46;66.03;100594.31;7310423;19;129181;-41
2022/10/19 11:46:36;;;;;;;;;;;;;;;21.40;65.96;100584.28;7307954;19;131447;-41
2022/10/19 11:49:02;;;;;;;;;;;;;;;21.50;65.48;100594.91;7310105;19;130324;-41
2022/10/19 11:51:27;;;;;;;;;;;;;;;21.37;65.69;100568.81;7308452;19;131177;-37
2022/10/19 11:53:52;;;;;;;;;;;;;;;21.47;66.16;100582.88;7309121;19;129041;-40
2022/10/19 11:56:20;;;;;;;;;;;;;;;21.53;65.83;100585.06;7308774;19;129735;-41
2022/10/19 11:59:00;;;;;;;;;;;;;;;21.50;65.60;100585.25;7309008;19;130197;-39
2022/10/19 12:01:48;;;;;;;;;;;;;;;21.53;65.87;100574.59;7310066;19;131140;-39
2022/10/19 12:04:21;;;;;;;;;;;;;;;21.50;65.70;100580.03;7309847;19;129200;-38
2022/10/19 12:07:06;;;;;;;;;;;;;;;21.50;65.39;100572.19;7309109;19;129500;-41
2022/10/19 12:09:41;;;;;;;;;;;;;;;21.48;65.88;100561.03;7305854;19;130348;-38
2022/10/19 12:12:06;;;;;;;;;;;;;;;21.42;65.20;100550.19;7310339;19;130994;-39
2022/10/19 12:14:34;;;;;;;;;;;;;;;21.49;65.54;100565.28;7317460;19;129233;-39
2022/10/19 12:17:04;;;;;;;;;;;;;;;21.45;65.36;100571.69;7314738;19;129906;-39
2022/10/19 12:19:36;;;;;;;;;;;;;;;21.47;65.77;100563.75;7315831;19;129489;-39
2022/10/19 12:22:03;;;;;;;;;;;;;;;21.49;65.96;100562.69;7316616;19;130964;-39
2022/10/19 12:24:29;;;;;;;;;;;;;;;21.49;65.67;100562.69;7315671;19;129362;-39
2022/10/19 12:26:55;;;;;;;;;;;;;;;21.50;65.73;100548.63;7314159;19;130009;-41
2022/10/19 12:29:22;;;;;;;;;;;;;;;21.50;65.79;100553.88;7315513;19;130923;-39
2022/10/19 12:31:49;;;;;;;;;;;;;;;21.48;66.25;100550.56;7314426;19;129356;-39